Aviation Digital Data Service (ADDS)

Output produced by METARs form (0256 UTC 05 June 2020)
found at http://www.aviationweather.gov/metar/data/
 
METAR text: UKKK 050230Z 17003MPS 140V200 CAVOK 13/11 Q1004 R26/70D NOSIG
Conditions at: UKKK (KIEV/ZHYLIANY , UA) observed 0230 UTC 05 June 2020
Temperature: 13.0°C (55°F)
Dewpoint: 11.0°C (52°F) [RH = 88%]
Pressure (altimeter): 29.65 inches Hg (1004.0 mb)
Winds: from the S (170 degrees) at 7 MPH (6 knots; 3.1 m/s)
Visibility: 6 or more miles (10+ km)
Ceiling: ceiling and visibility are OK
Clouds: unknown
Weather: no significant weather observed at this time

METAR text: UKKK 050200Z 16002MPS 120V210 CAVOK 12/10 Q1004 R26/70D NOSIG
Conditions at: UKKK (KIEV/ZHYLIANY , UA) observed 0200 UTC 05 June 2020
Temperature: 12.0°C (54°F)
Dewpoint: 10.0°C (50°F) [RH = 88%]
Pressure (altimeter): 29.65 inches Hg (1004.0 mb)
Winds: from the SSE (160 degrees) at 5 MPH (4 knots; 2.1 m/s)
Visibility: 6 or more miles (10+ km)
Ceiling: ceiling and visibility are OK
Clouds: unknown
Weather: no significant weather observed at this time

METAR text: UKKK 050130Z 20002MPS 150V230 CAVOK 11/09 Q1004 R26/CLRD70 NOSIG
Conditions at: UKKK (KIEV/ZHYLIANY , UA) observed 0130 UTC 05 June 2020
Temperature: 11.0°C (52°F)
Dewpoint: 9.0°C (48°F) [RH = 87%]
Pressure (altimeter): 29.65 inches Hg (1004.0 mb)
Winds: from the SSW (200 degrees) at 5 MPH (4 knots; 2.1 m/s)
Visibility: 6 or more miles (10+ km)
Ceiling: ceiling and visibility are OK
Clouds: unknown
Weather: no significant weather observed at this time

METAR text: UKKK 050100Z VRB01MPS CAVOK 11/09 Q1004 R26/70D NOSIG
Conditions at: UKKK (KIEV/ZHYLIANY , UA) observed 0100 UTC 05 June 2020
Temperature: 11.0°C (52°F)
Dewpoint: 9.0°C (48°F) [RH = 87%]
Pressure (altimeter): 29.65 inches Hg (1004.0 mb)
Winds: variable direction winds at 2 MPH (2 knots; 1.0 m/s)
Visibility: 6 or more miles (10+ km)
Ceiling: ceiling and visibility are OK
Clouds: unknown
Weather: no significant weather observed at this time

METAR text: UKKK 050030Z 21002MPS 180V240 CAVOK 12/09 Q1004 R26/70D NOSIG
Conditions at: UKKK (KIEV/ZHYLIANY , UA) observed 0030 UTC 05 June 2020
Temperature: 12.0°C (54°F)
Dewpoint: 9.0°C (48°F) [RH = 82%]
Pressure (altimeter): 29.65 inches Hg (1004.0 mb)
Winds: from the SSW (210 degrees) at 5 MPH (4 knots; 2.1 m/s)
Visibility: 6 or more miles (10+ km)
Ceiling: ceiling and visibility are OK
Clouds: unknown
Weather: no significant weather observed at this time

METAR text: UKKK 050000Z 23002MPS 210V270 CAVOK 12/09 Q1004 R26/70D NOSIG
Conditions at: UKKK (KIEV/ZHYLIANY , UA) observed 0000 UTC 05 June 2020
Temperature: 12.0°C (54°F)
Dewpoint: 9.0°C (48°F) [RH = 82%]
Pressure (altimeter): 29.65 inches Hg (1004.0 mb)
Winds: from the SW (230 degrees) at 5 MPH (4 knots; 2.1 m/s)
Visibility: 6 or more miles (10+ km)
Ceiling: ceiling and visibility are OK
Clouds: unknown
Weather: no significant weather observed at this time

METAR text: UKKK 042330Z 22003MPS CAVOK 13/09 Q1004 R26/70D NOSIG
Conditions at: UKKK (KIEV/ZHYLIANY , UA) observed 2330 UTC 04 June 2020
Temperature: 13.0°C (55°F)
Dewpoint: 9.0°C (48°F) [RH = 77%]
Pressure (altimeter): 29.65 inches Hg (1004.0 mb)
Winds: from the SW (220 degrees) at 7 MPH (6 knots; 3.1 m/s)
Visibility: 6 or more miles (10+ km)
Ceiling: ceiling and visibility are OK
Clouds: unknown
Weather: no significant weather observed at this time

METAR text: UKKK 042300Z 22004MPS 180V250 CAVOK 13/09 Q1004 R26/70D NOSIG
Conditions at: UKKK (KIEV/ZHYLIANY , UA) observed 2300 UTC 04 June 2020
Temperature: 13.0°C (55°F)
Dewpoint: 9.0°C (48°F) [RH = 77%]
Pressure (altimeter): 29.65 inches Hg (1004.0 mb)
Winds: from the SW (220 degrees) at 9 MPH (8 knots; 4.1 m/s)
Visibility: 6 or more miles (10+ km)
Ceiling: ceiling and visibility are OK
Clouds: unknown
Weather: no significant weather observed at this time

METAR text: UKKK 042230Z 20004G09MPS 170V230 CAVOK 14/09 Q1004 R26/70D NOSIG
Conditions at: UKKK (KIEV/ZHYLIANY , UA) observed 2230 UTC 04 June 2020
Temperature: 14.0°C (57°F)
Dewpoint: 9.0°C (48°F) [RH = 72%]
Pressure (altimeter): 29.65 inches Hg (1004.0 mb)
Winds: from the SSW (200 degrees) at 9 MPH (8 knots; 4.1 m/s)
gusting to 20 MPH (17 knots; 8.7 m/s)
Visibility: 6 or more miles (10+ km)
Ceiling: ceiling and visibility are OK
Clouds: unknown
Weather: no significant weather observed at this time

METAR text: UKKK 042200Z 17003MPS 140V200 CAVOK 14/09 Q1004 R26/70D NOSIG
Conditions at: UKKK (KIEV/ZHYLIANY , UA) observed 2200 UTC 04 June 2020
Temperature: 14.0°C (57°F)
Dewpoint: 9.0°C (48°F) [RH = 72%]
Pressure (altimeter): 29.65 inches Hg (1004.0 mb)
Winds: from the S (170 degrees) at 7 MPH (6 knots; 3.1 m/s)
Visibility: 6 or more miles (10+ km)
Ceiling: ceiling and visibility are OK
Clouds: unknown
Weather: no significant weather observed at this time

METAR text: UKKK 042130Z 15003MPS CAVOK 14/09 Q1004 R26/CLRD70 NOSIG
Conditions at: UKKK (KIEV/ZHYLIANY , UA) observed 2130 UTC 04 June 2020
Temperature: 14.0°C (57°F)
Dewpoint: 9.0°C (48°F) [RH = 72%]
Pressure (altimeter): 29.65 inches Hg (1004.0 mb)
Winds: from the SSE (150 degrees) at 7 MPH (6 knots; 3.1 m/s)
Visibility: 6 or more miles (10+ km)
Ceiling: ceiling and visibility are OK
Clouds: unknown
Weather: no significant weather observed at this time

METAR text: UKKK 042100Z 16003MPS 110V190 CAVOK 14/08 Q1004 R26/70D NOSIG
Conditions at: UKKK (KIEV/ZHYLIANY , UA) observed 2100 UTC 04 June 2020
Temperature: 14.0°C (57°F)
Dewpoint: 8.0°C (46°F) [RH = 67%]
Pressure (altimeter): 29.65 inches Hg (1004.0 mb)
Winds: from the SSE (160 degrees) at 7 MPH (6 knots; 3.1 m/s)
Visibility: 6 or more miles (10+ km)
Ceiling: ceiling and visibility are OK
Clouds: unknown
Weather: no significant weather observed at this time

METAR text: UKKK 042030Z 16004MPS 130V190 CAVOK 14/08 Q1005 R26/70D NOSIG
Conditions at: UKKK (KIEV/ZHYLIANY , UA) observed 2030 UTC 04 June 2020
Temperature: 14.0°C (57°F)
Dewpoint: 8.0°C (46°F) [RH = 67%]
Pressure (altimeter): 29.68 inches Hg (1005.0 mb)
Winds: from the SSE (160 degrees) at 9 MPH (8 knots; 4.1 m/s)
Visibility: 6 or more miles (10+ km)
Ceiling: ceiling and visibility are OK
Clouds: unknown
Weather: no significant weather observed at this time

METAR text: UKKK 042000Z 13003MPS 100V160 CAVOK 13/07 Q1004 R26/70D NOSIG
Conditions at: UKKK (KIEV/ZHYLIANY , UA) observed 2000 UTC 04 June 2020
Temperature: 13.0°C (55°F)
Dewpoint: 7.0°C (45°F) [RH = 67%]
Pressure (altimeter): 29.65 inches Hg (1004.0 mb)
Winds: from the SE (130 degrees) at 7 MPH (6 knots; 3.1 m/s)
Visibility: 6 or more miles (10+ km)
Ceiling: ceiling and visibility are OK
Clouds: unknown
Weather: no significant weather observed at this time

METAR text: UKKK 041930Z 13002MPS 100V170 CAVOK 13/07 Q1005 R26/70D NOSIG
Conditions at: UKKK (KIEV/ZHYLIANY , UA) observed 1930 UTC 04 June 2020
Temperature: 13.0°C (55°F)
Dewpoint: 7.0°C (45°F) [RH = 67%]
Pressure (altimeter): 29.68 inches Hg (1005.0 mb)
Winds: from the SE (130 degrees) at 5 MPH (4 knots; 2.1 m/s)
Visibility: 6 or more miles (10+ km)
Ceiling: ceiling and visibility are OK
Clouds: unknown
Weather: no significant weather observed at this time

METAR text: UKKK 041900Z 15002MPS CAVOK 12/08 Q1005 R26/70D NOSIG
Conditions at: UKKK (KIEV/ZHYLIANY , UA) observed 1900 UTC 04 June 2020
Temperature: 12.0°C (54°F)
Dewpoint: 8.0°C (46°F) [RH = 76%]
Pressure (altimeter): 29.68 inches Hg (1005.0 mb)
Winds: from the SSE (150 degrees) at 5 MPH (4 knots; 2.1 m/s)
Visibility: 6 or more miles (10+ km)
Ceiling: ceiling and visibility are OK
Clouds: unknown
Weather: no significant weather observed at this time

METAR text: UKKK 041830Z 00000MPS CAVOK 11/08 Q1005 R26/70D NOSIG
Conditions at: UKKK (KIEV/ZHYLIANY , UA) observed 1830 UTC 04 June 2020
Temperature: 11.0°C (52°F)
Dewpoint: 8.0°C (46°F) [RH = 82%]
Pressure (altimeter): 29.68 inches Hg (1005.0 mb)
Winds: calm
Visibility: 6 or more miles (10+ km)
Ceiling: ceiling and visibility are OK
Clouds: unknown
Weather: no significant weather observed at this time

METAR text: UKKK 041800Z 19001MPS CAVOK 14/08 Q1005 R26/70D NOSIG
Conditions at: UKKK (KIEV/ZHYLIANY , UA) observed 1800 UTC 04 June 2020
Temperature: 14.0°C (57°F)
Dewpoint: 8.0°C (46°F) [RH = 67%]
Pressure (altimeter): 29.68 inches Hg (1005.0 mb)
Winds: from the S (190 degrees) at 2 MPH (2 knots; 1.0 m/s)
Visibility: 6 or more miles (10+ km)
Ceiling: ceiling and visibility are OK
Clouds: unknown
Weather: no significant weather observed at this time

METAR text: UKKK 041730Z 19001MPS CAVOK 15/07 Q1005 R26/70D NOSIG
Conditions at: UKKK (KIEV/ZHYLIANY , UA) observed 1730 UTC 04 June 2020
Temperature: 15.0°C (59°F)
Dewpoint: 7.0°C (45°F) [RH = 59%]
Pressure (altimeter): 29.68 inches Hg (1005.0 mb)
Winds: from the S (190 degrees) at 2 MPH (2 knots; 1.0 m/s)
Visibility: 6 or more miles (10+ km)
Ceiling: ceiling and visibility are OK
Clouds: unknown
Weather: no significant weather observed at this time

METAR text: UKKK 041700Z 26003MPS CAVOK 15/07 Q1004 R26/70D NOSIG
Conditions at: UKKK (KIEV/ZHYLIANY , UA) observed 1700 UTC 04 June 2020
Temperature: 15.0°C (59°F)
Dewpoint: 7.0°C (45°F) [RH = 59%]
Pressure (altimeter): 29.65 inches Hg (1004.0 mb)
Winds: from the W (260 degrees) at 7 MPH (6 knots; 3.1 m/s)
Visibility: 6 or more miles (10+ km)
Ceiling: ceiling and visibility are OK
Clouds: unknown
Weather: no significant weather observed at this time

METAR text: UKKK 041630Z 27006MPS CAVOK 17/07 Q1005 R26/70D NOSIG
Conditions at: UKKK (KIEV/ZHYLIANY , UA) observed 1630 UTC 04 June 2020
Temperature: 17.0°C (63°F)
Dewpoint: 7.0°C (45°F) [RH = 52%]
Pressure (altimeter): 29.68 inches Hg (1005.0 mb)
Winds: from the W (270 degrees) at 14 MPH (12 knots; 6.2 m/s)
Visibility: 6 or more miles (10+ km)
Ceiling: ceiling and visibility are OK
Clouds: unknown
Weather: no significant weather observed at this time

METAR text: UKKK 041600Z 26005MPS CAVOK 18/06 Q1004 R26/70D NOSIG
Conditions at: UKKK (KIEV/ZHYLIANY , UA) observed 1600 UTC 04 June 2020
Temperature: 18.0°C (64°F)
Dewpoint: 6.0°C (43°F) [RH = 45%]
Pressure (altimeter): 29.65 inches Hg (1004.0 mb)
Winds: from the W (260 degrees) at 12 MPH (10 knots; 5.1 m/s)
Visibility: 6 or more miles (10+ km)
Ceiling: ceiling and visibility are OK
Clouds: unknown
Weather: no significant weather observed at this time

METAR text: UKKK 041530Z 25004MPS 220V280 CAVOK 18/06 Q1004 R26/CLRD70 TEMPO VRB10G18MPS 2000 TSRAGR SQ BKN015CB
Conditions at: UKKK (KIEV/ZHYLIANY , UA) observed 1530 UTC 04 June 2020
Temperature: 18.0°C (64°F)
Dewpoint: 6.0°C (43°F) [RH = 45%]
Pressure (altimeter): 29.65 inches Hg (1004.0 mb)
Winds: from the WSW (250 degrees) at 9 MPH (8 knots; 4.1 m/s)
Visibility: 6 or more miles (10+ km)
Ceiling: ceiling and visibility are OK
Clouds: unknown
Weather: no significant weather observed at this time

METAR text: UKKK 041500Z 26006MPS CAVOK 18/06 Q1004 R26/CLRD70 TEMPO VRB10G18MPS 2000 TSRAGR SQ BKN015CB
Conditions at: UKKK (KIEV/ZHYLIANY , UA) observed 1500 UTC 04 June 2020
Temperature: 18.0°C (64°F)
Dewpoint: 6.0°C (43°F) [RH = 45%]
Pressure (altimeter): 29.65 inches Hg (1004.0 mb)
Winds: from the W (260 degrees) at 14 MPH (12 knots; 6.2 m/s)
Visibility: 6 or more miles (10+ km)
Ceiling: ceiling and visibility are OK
Clouds: unknown
Weather: no significant weather observed at this time

METAR text: UKKK 041430Z 26006MPS CAVOK 17/08 Q1004 R26/CLRD70 TEMPO VRB10G18MPS 2000 TSRAGR SQ BKN015CB
Conditions at: UKKK (KIEV/ZHYLIANY , UA) observed 1430 UTC 04 June 2020
Temperature: 17.0°C (63°F)
Dewpoint: 8.0°C (46°F) [RH = 55%]
Pressure (altimeter): 29.65 inches Hg (1004.0 mb)
Winds: from the W (260 degrees) at 14 MPH (12 knots; 6.2 m/s)
Visibility: 6 or more miles (10+ km)
Ceiling: ceiling and visibility are OK
Clouds: unknown
Weather: no significant weather observed at this time

METAR text: UKKK 041400Z 24007MPS 210V270 9999 SCT027CB 17/07 Q1004 R26/CLRD70 TEMPO VRB10G18MPS 2000 TSRAGR SQ BKN015CB
Conditions at: UKKK (KIEV/ZHYLIANY , UA) observed 1400 UTC 04 June 2020
Temperature: 17.0°C (63°F)
Dewpoint: 7.0°C (45°F) [RH = 52%]
Pressure (altimeter): 29.65 inches Hg (1004.0 mb)
Winds: from the WSW (240 degrees) at 16 MPH (14 knots; 7.2 m/s)
Visibility: 6 or more miles (10+ km)
Ceiling: at least 12,000 feet AGL
Clouds: scattered clouds at 2700 feet AGL
Weather: no significant weather observed at this time

METAR text: UKKK 041330Z 25007MPS 220V280 CAVOK 20/07 Q1003 R26/70D TEMPO VRB10G18MPS 2000 TSRAGR SQ BKN015CB
Conditions at: UKKK (KIEV/ZHYLIANY , UA) observed 1330 UTC 04 June 2020
Temperature: 20.0°C (68°F)
Dewpoint: 7.0°C (45°F) [RH = 43%]
Pressure (altimeter): 29.62 inches Hg (1003.0 mb)
Winds: from the WSW (250 degrees) at 16 MPH (14 knots; 7.2 m/s)
Visibility: 6 or more miles (10+ km)
Ceiling: ceiling and visibility are OK
Clouds: unknown
Weather: no significant weather observed at this time

METAR text: UKKK 041300Z 24004MPS 200V270 CAVOK 19/07 Q1003 R26/70D TEMPO VRB10G18MPS 2000 TSRAGR SQ BKN015CB
Conditions at: UKKK (KIEV/ZHYLIANY , UA) observed 1300 UTC 04 June 2020
Temperature: 19.0°C (66°F)
Dewpoint: 7.0°C (45°F) [RH = 46%]
Pressure (altimeter): 29.62 inches Hg (1003.0 mb)
Winds: from the WSW (240 degrees) at 9 MPH (8 knots; 4.1 m/s)
Visibility: 6 or more miles (10+ km)
Ceiling: ceiling and visibility are OK
Clouds: unknown
Weather: no significant weather observed at this time

METAR text: UKKK 041230Z 28006MPS CAVOK 19/07 Q1003 R26/70D TEMPO VRB10G18MPS 2000 TSRAGR SQ BKN015CB
Conditions at: UKKK (KIEV/ZHYLIANY , UA) observed 1230 UTC 04 June 2020
Temperature: 19.0°C (66°F)
Dewpoint: 7.0°C (45°F) [RH = 46%]
Pressure (altimeter): 29.62 inches Hg (1003.0 mb)
Winds: from the W (280 degrees) at 14 MPH (12 knots; 6.2 m/s)
Visibility: 6 or more miles (10+ km)
Ceiling: ceiling and visibility are OK
Clouds: unknown
Weather: no significant weather observed at this time

METAR text: UKKK 041200Z 25006G11MPS 9999 BKN049 20/08 Q1004 R26/70D TEMPO VRB10G18MPS 2000 TSRAGR SQ BKN015CB
Conditions at: UKKK (KIEV/ZHYLIANY , UA) observed 1200 UTC 04 June 2020
Temperature: 20.0°C (68°F)
Dewpoint: 8.0°C (46°F) [RH = 46%]
Pressure (altimeter): 29.65 inches Hg (1004.0 mb)
Winds: from the WSW (250 degrees) at 14 MPH (12 knots; 6.2 m/s)
gusting to 24 MPH (21 knots; 10.8 m/s)
Visibility: 6 or more miles (10+ km)
Ceiling: 4900 feet AGL
Clouds: broken clouds at 4900 feet AGL
Weather: no significant weather observed at this time

METAR text: UKKK 041130Z 26005MPS 220V280 9999 FEW///CB 18/08 Q1004 R26/CLRD70 TEMPO VRB10G18MPS 2000 TSRAGR SQ BKN015CB
Conditions at: UKKK (KIEV/ZHYLIANY , UA) observed 1130 UTC 04 June 2020
Temperature: 18.0°C (64°F)
Dewpoint: 8.0°C (46°F) [RH = 52%]
Pressure (altimeter): 29.65 inches Hg (1004.0 mb)
Winds: from the W (260 degrees) at 12 MPH (10 knots; 5.1 m/s)
Visibility: 6 or more miles (10+ km)
Ceiling: unknown
Clouds: missing
Weather: no significant weather observed at this time

METAR text: UKKK 041100Z 28005MPS 240V310 9999 -SHRA SCT045CB 17/09 Q1004 R26/70D TEMPO VRB10G18MPS 2000 TSRAGR SQ BKN015CB
Conditions at: UKKK (KIEV/ZHYLIANY , UA) observed 1100 UTC 04 June 2020
Temperature: 17.0°C (63°F)
Dewpoint: 9.0°C (48°F) [RH = 59%]
Pressure (altimeter): 29.65 inches Hg (1004.0 mb)
Winds: from the W (280 degrees) at 12 MPH (10 knots; 5.1 m/s)
Visibility: 6 or more miles (10+ km)
Ceiling: at least 12,000 feet AGL
Clouds: scattered clouds at 4500 feet AGL
Weather: -SHRA  (light rain showers)

METAR text: UKKK 041030Z 21005MPS 170V250 9999 BKN047 18/08 Q1004 R26/70D TEMPO VRB10G18MPS 2000 TSRAGR SQ BKN015CB
Conditions at: UKKK (KIEV/ZHYLIANY , UA) observed 1030 UTC 04 June 2020
Temperature: 18.0°C (64°F)
Dewpoint: 8.0°C (46°F) [RH = 52%]
Pressure (altimeter): 29.65 inches Hg (1004.0 mb)
Winds: from the SSW (210 degrees) at 12 MPH (10 knots; 5.1 m/s)
Visibility: 6 or more miles (10+ km)
Ceiling: 4700 feet AGL
Clouds: broken clouds at 4700 feet AGL
Weather: no significant weather observed at this time

METAR text: UKKK 041000Z 21006MPS 170V250 9999 FEW044 18/09 Q1004 R26/70D TEMPO VRB10G18MPS 2000 TSRAGR SQ BKN015CB
Conditions at: UKKK (KIEV/ZHYLIANY , UA) observed 1000 UTC 04 June 2020
Temperature: 18.0°C (64°F)
Dewpoint: 9.0°C (48°F) [RH = 56%]
Pressure (altimeter): 29.65 inches Hg (1004.0 mb)
Winds: from the SSW (210 degrees) at 14 MPH (12 knots; 6.2 m/s)
Visibility: 6 or more miles (10+ km)
Ceiling: at least 12,000 feet AGL
Clouds: few clouds at 4400 feet AGL
Weather: no significant weather observed at this time

METAR text: UKKK 040930Z 22005MPS 170V260 9999 FEW049 18/08 Q1004 R26/70D TEMPO VRB10G18MPS 2000 TSRAGR SQ BKN015CB
Conditions at: UKKK (KIEV/ZHYLIANY , UA) observed 0930 UTC 04 June 2020
Temperature: 18.0°C (64°F)
Dewpoint: 8.0°C (46°F) [RH = 52%]
Pressure (altimeter): 29.65 inches Hg (1004.0 mb)
Winds: from the SW (220 degrees) at 12 MPH (10 knots; 5.1 m/s)
Visibility: 6 or more miles (10+ km)
Ceiling: at least 12,000 feet AGL
Clouds: few clouds at 4900 feet AGL
Weather: no significant weather observed at this time

METAR text: UKKK 040900Z 24006MPS 9999 FEW042CB 17/09 Q1005 R26/70D TEMPO VRB10G18MPS 2000 TSRAGR SQ BKN015CB
Conditions at: UKKK (KIEV/ZHYLIANY , UA) observed 0900 UTC 04 June 2020
Temperature: 17.0°C (63°F)
Dewpoint: 9.0°C (48°F) [RH = 59%]
Pressure (altimeter): 29.68 inches Hg (1005.0 mb)
Winds: from the WSW (240 degrees) at 14 MPH (12 knots; 6.2 m/s)
Visibility: 6 or more miles (10+ km)
Ceiling: at least 12,000 feet AGL
Clouds: few clouds at 4200 feet AGL
Weather: no significant weather observed at this time

METAR text: UKKK 040830Z 23005MPS 190V260 9999 FEW045CB 16/08 Q1005 R26/70D TEMPO VRB10G18MPS 2000 TSRAGR SQ BKN015CB
Conditions at: UKKK (KIEV/ZHYLIANY , UA) observed 0830 UTC 04 June 2020
Temperature: 16.0°C (61°F)
Dewpoint: 8.0°C (46°F) [RH = 59%]
Pressure (altimeter): 29.68 inches Hg (1005.0 mb)
Winds: from the SW (230 degrees) at 12 MPH (10 knots; 5.1 m/s)
Visibility: 6 or more miles (10+ km)
Ceiling: at least 12,000 feet AGL
Clouds: few clouds at 4500 feet AGL
Weather: no significant weather observed at this time

METAR text: UKKK 040800Z 22004MPS 180V260 9999 FEW036CB 16/08 Q1005 R26/190060 TEMPO VRB10G18MPS 2000 TSRAGR SQ BKN015CB
Conditions at: UKKK (KIEV/ZHYLIANY , UA) observed 0800 UTC 04 June 2020
Temperature: 16.0°C (61°F)
Dewpoint: 8.0°C (46°F) [RH = 59%]
Pressure (altimeter): 29.68 inches Hg (1005.0 mb)
Winds: from the SW (220 degrees) at 9 MPH (8 knots; 4.1 m/s)
Visibility: 6 or more miles (10+ km)
Ceiling: at least 12,000 feet AGL
Clouds: few clouds at 3600 feet AGL
Weather: no significant weather observed at this time

METAR text: UKKK 040730Z 23004MPS 180V270 9999 BKN040 16/08 Q1004 R26/190060 NOSIG
Conditions at: UKKK (KIEV/ZHYLIANY , UA) observed 0730 UTC 04 June 2020
Temperature: 16.0°C (61°F)
Dewpoint: 8.0°C (46°F) [RH = 59%]
Pressure (altimeter): 29.65 inches Hg (1004.0 mb)
Winds: from the SW (230 degrees) at 9 MPH (8 knots; 4.1 m/s)
Visibility: 6 or more miles (10+ km)
Ceiling: 4000 feet AGL
Clouds: broken clouds at 4000 feet AGL
Weather: no significant weather observed at this time

METAR text: UKKK 040700Z 23003MPS 180V270 9999 BKN035 15/08 Q1004 R26/190060 NOSIG
Conditions at: UKKK (KIEV/ZHYLIANY , UA) observed 0700 UTC 04 June 2020
Temperature: 15.0°C (59°F)
Dewpoint: 8.0°C (46°F) [RH = 63%]
Pressure (altimeter): 29.65 inches Hg (1004.0 mb)
Winds: from the SW (230 degrees) at 7 MPH (6 knots; 3.1 m/s)
Visibility: 6 or more miles (10+ km)
Ceiling: 3500 feet AGL
Clouds: broken clouds at 3500 feet AGL
Weather: no significant weather observed at this time

METAR text: UKKK 040630Z 23003MPS 170V270 9999 SCT043 16/09 Q1004 R26/190060 NOSIG
Conditions at: UKKK (KIEV/ZHYLIANY , UA) observed 0630 UTC 04 June 2020
Temperature: 16.0°C (61°F)
Dewpoint: 9.0°C (48°F) [RH = 63%]
Pressure (altimeter): 29.65 inches Hg (1004.0 mb)
Winds: from the SW (230 degrees) at 7 MPH (6 knots; 3.1 m/s)
Visibility: 6 or more miles (10+ km)
Ceiling: at least 12,000 feet AGL
Clouds: scattered clouds at 4300 feet AGL
Weather: no significant weather observed at this time

METAR text: UKKK 040600Z 22003MPS 180V270 CAVOK 15/09 Q1004 R26/190060 NOSIG
Conditions at: UKKK (KIEV/ZHYLIANY , UA) observed 0600 UTC 04 June 2020
Temperature: 15.0°C (59°F)
Dewpoint: 9.0°C (48°F) [RH = 67%]
Pressure (altimeter): 29.65 inches Hg (1004.0 mb)
Winds: from the SW (220 degrees) at 7 MPH (6 knots; 3.1 m/s)
Visibility: 6 or more miles (10+ km)
Ceiling: ceiling and visibility are OK
Clouds: unknown
Weather: no significant weather observed at this time

METAR text: UKKK 040530Z 22003MPS 180V250 CAVOK 14/09 Q1004 R26/190060 NOSIG
Conditions at: UKKK (KIEV/ZHYLIANY , UA) observed 0530 UTC 04 June 2020
Temperature: 14.0°C (57°F)
Dewpoint: 9.0°C (48°F) [RH = 72%]
Pressure (altimeter): 29.65 inches Hg (1004.0 mb)
Winds: from the SW (220 degrees) at 7 MPH (6 knots; 3.1 m/s)
Visibility: 6 or more miles (10+ km)
Ceiling: ceiling and visibility are OK
Clouds: unknown
Weather: no significant weather observed at this time

METAR text: UKKK 040500Z 23002MPS 190V280 CAVOK 13/09 Q1004 R26/190060 NOSIG
Conditions at: UKKK (KIEV/ZHYLIANY , UA) observed 0500 UTC 04 June 2020
Temperature: 13.0°C (55°F)
Dewpoint: 9.0°C (48°F) [RH = 77%]
Pressure (altimeter): 29.65 inches Hg (1004.0 mb)
Winds: from the SW (230 degrees) at 5 MPH (4 knots; 2.1 m/s)
Visibility: 6 or more miles (10+ km)
Ceiling: ceiling and visibility are OK
Clouds: unknown
Weather: no significant weather observed at this time

METAR text: UKKK 040430Z 25003MPS CAVOK 12/09 Q1004 R26/190060 NOSIG
Conditions at: UKKK (KIEV/ZHYLIANY , UA) observed 0430 UTC 04 June 2020
Temperature: 12.0°C (54°F)
Dewpoint: 9.0°C (48°F) [RH = 82%]
Pressure (altimeter): 29.65 inches Hg (1004.0 mb)
Winds: from the WSW (250 degrees) at 7 MPH (6 knots; 3.1 m/s)
Visibility: 6 or more miles (10+ km)
Ceiling: ceiling and visibility are OK
Clouds: unknown
Weather: no significant weather observed at this time

METAR text: UKKK 040400Z 24003MPS 200V270 CAVOK 11/09 Q1004 R26/190060 NOSIG
Conditions at: UKKK (KIEV/ZHYLIANY , UA) observed 0400 UTC 04 June 2020
Temperature: 11.0°C (52°F)
Dewpoint: 9.0°C (48°F) [RH = 87%]
Pressure (altimeter): 29.65 inches Hg (1004.0 mb)
Winds: from the WSW (240 degrees) at 7 MPH (6 knots; 3.1 m/s)
Visibility: 6 or more miles (10+ km)
Ceiling: ceiling and visibility are OK
Clouds: unknown
Weather: no significant weather observed at this time

METAR text: UKKK 040330Z 24003MPS 210V270 CAVOK 10/09 Q1004 R26/290156 NOSIG
Conditions at: UKKK (KIEV/ZHYLIANY , UA) observed 0330 UTC 04 June 2020
Temperature: 10.0°C (50°F)
Dewpoint: 9.0°C (48°F) [RH = 93%]
Pressure (altimeter): 29.65 inches Hg (1004.0 mb)
Winds: from the WSW (240 degrees) at 7 MPH (6 knots; 3.1 m/s)
Visibility: 6 or more miles (10+ km)
Ceiling: ceiling and visibility are OK
Clouds: unknown
Weather: no significant weather observed at this time

METAR text: UKKK 040300Z VRB01MPS CAVOK 08/08 Q1004 R26/290156 NOSIG
Conditions at: UKKK (KIEV/ZHYLIANY , UA) observed 0300 UTC 04 June 2020
Temperature: 8.0°C (46°F)
Dewpoint: 8.0°C (46°F) [RH = 100%]
Pressure (altimeter): 29.65 inches Hg (1004.0 mb)
Winds: variable direction winds at 2 MPH (2 knots; 1.0 m/s)
Visibility: 6 or more miles (10+ km)
Ceiling: ceiling and visibility are OK
Clouds: unknown
Weather: no significant weather observed at this time

METAR text: UKKK 040230Z 23001MPS CAVOK 07/07 Q1004 R26/290156 NOSIG
Conditions at: UKKK (KIEV/ZHYLIANY , UA) observed 0230 UTC 04 June 2020
Temperature: 7.0°C (45°F)
Dewpoint: 7.0°C (45°F) [RH = 100%]
Pressure (altimeter): 29.65 inches Hg (1004.0 mb)
Winds: from the SW (230 degrees) at 2 MPH (2 knots; 1.0 m/s)
Visibility: 6 or more miles (10+ km)
Ceiling: ceiling and visibility are OK
Clouds: unknown
Weather: no significant weather observed at this time

METAR text: UKKK 040200Z 24002MPS CAVOK 07/07 Q1004 R26/290156 NOSIG
Conditions at: UKKK (KIEV/ZHYLIANY , UA) observed 0200 UTC 04 June 2020
Temperature: 7.0°C (45°F)
Dewpoint: 7.0°C (45°F) [RH = 100%]
Pressure (altimeter): 29.65 inches Hg (1004.0 mb)
Winds: from the WSW (240 degrees) at 5 MPH (4 knots; 2.1 m/s)
Visibility: 6 or more miles (10+ km)
Ceiling: ceiling and visibility are OK
Clouds: unknown
Weather: no significant weather observed at this time

METAR text: UKKK 040130Z 24002MPS 9999 2500W NSC 07/07 Q1004 R26/290156 NOSIG
Conditions at: UKKK (KIEV/ZHYLIANY , UA) observed 0130 UTC 04 June 2020
Temperature: 7.0°C (45°F)
Dewpoint: 7.0°C (45°F) [RH = 100%]
Pressure (altimeter): 29.65 inches Hg (1004.0 mb)
Winds: from the WSW (240 degrees) at 5 MPH (4 knots; 2.1 m/s)
Visibility: 6 or more miles (10+ km)
Ceiling: at least 12,000 feet AGL
Clouds: sky clear below 12,000 feet AGL
Weather: no significant weather observed at this time

METAR text: UKKK 040100Z 22002MPS CAVOK 08/08 Q1004 R26/290156 NOSIG
Conditions at: UKKK (KIEV/ZHYLIANY , UA) observed 0100 UTC 04 June 2020
Temperature: 8.0°C (46°F)
Dewpoint: 8.0°C (46°F) [RH = 100%]
Pressure (altimeter): 29.65 inches Hg (1004.0 mb)
Winds: from the SW (220 degrees) at 5 MPH (4 knots; 2.1 m/s)
Visibility: 6 or more miles (10+ km)
Ceiling: ceiling and visibility are OK
Clouds: unknown
Weather: no significant weather observed at this time

METAR text: UKKK 040030Z 23002MPS CAVOK 09/08 Q1004 R26/290156 NOSIG
Conditions at: UKKK (KIEV/ZHYLIANY , UA) observed 0030 UTC 04 June 2020
Temperature: 9.0°C (48°F)
Dewpoint: 8.0°C (46°F) [RH = 93%]
Pressure (altimeter): 29.65 inches Hg (1004.0 mb)
Winds: from the SW (230 degrees) at 5 MPH (4 knots; 2.1 m/s)
Visibility: 6 or more miles (10+ km)
Ceiling: ceiling and visibility are OK
Clouds: unknown
Weather: no significant weather observed at this time

METAR text: UKKK 040000Z 23003MPS CAVOK 09/09 Q1004 R26/290156 NOSIG
Conditions at: UKKK (KIEV/ZHYLIANY , UA) observed 0000 UTC 04 June 2020
Temperature: 9.0°C (48°F)
Dewpoint: 9.0°C (48°F) [RH = 100%]
Pressure (altimeter): 29.65 inches Hg (1004.0 mb)
Winds: from the SW (230 degrees) at 7 MPH (6 knots; 3.1 m/s)
Visibility: 6 or more miles (10+ km)
Ceiling: ceiling and visibility are OK
Clouds: unknown
Weather: no significant weather observed at this time

METAR text: UKKK 032330Z 23002MPS CAVOK 10/10 Q1004 R26/290156 NOSIG
Conditions at: UKKK (KIEV/ZHYLIANY , UA) observed 2330 UTC 03 June 2020
Temperature: 10.0°C (50°F)
Dewpoint: 10.0°C (50°F) [RH = 100%]
Pressure (altimeter): 29.65 inches Hg (1004.0 mb)
Winds: from the SW (230 degrees) at 5 MPH (4 knots; 2.1 m/s)
Visibility: 6 or more miles (10+ km)
Ceiling: ceiling and visibility are OK
Clouds: unknown
Weather: no significant weather observed at this time

METAR text: UKKK 032300Z 23003MPS CAVOK 10/10 Q1004 R26/290156 NOSIG
Conditions at: UKKK (KIEV/ZHYLIANY , UA) observed 2300 UTC 03 June 2020
Temperature: 10.0°C (50°F)
Dewpoint: 10.0°C (50°F) [RH = 100%]
Pressure (altimeter): 29.65 inches Hg (1004.0 mb)
Winds: from the SW (230 degrees) at 7 MPH (6 knots; 3.1 m/s)
Visibility: 6 or more miles (10+ km)
Ceiling: ceiling and visibility are OK
Clouds: unknown
Weather: no significant weather observed at this time

METAR text: UKKK 032230Z 22002MPS CAVOK 11/10 Q1004 R26/290156 NOSIG
Conditions at: UKKK (KIEV/ZHYLIANY , UA) observed 2230 UTC 03 June 2020
Temperature: 11.0°C (52°F)
Dewpoint: 10.0°C (50°F) [RH = 94%]
Pressure (altimeter): 29.65 inches Hg (1004.0 mb)
Winds: from the SW (220 degrees) at 5 MPH (4 knots; 2.1 m/s)
Visibility: 6 or more miles (10+ km)
Ceiling: ceiling and visibility are OK
Clouds: unknown
Weather: no significant weather observed at this time

METAR text: UKKK 032200Z 19002MPS CAVOK 11/10 Q1004 R26/290156 NOSIG
Conditions at: UKKK (KIEV/ZHYLIANY , UA) observed 2200 UTC 03 June 2020
Temperature: 11.0°C (52°F)
Dewpoint: 10.0°C (50°F) [RH = 94%]
Pressure (altimeter): 29.65 inches Hg (1004.0 mb)
Winds: from the S (190 degrees) at 5 MPH (4 knots; 2.1 m/s)
Visibility: 6 or more miles (10+ km)
Ceiling: ceiling and visibility are OK
Clouds: unknown
Weather: no significant weather observed at this time

METAR text: UKKK 032130Z 20003MPS CAVOK 11/09 Q1005 R26/290156 NOSIG
Conditions at: UKKK (KIEV/ZHYLIANY , UA) observed 2130 UTC 03 June 2020
Temperature: 11.0°C (52°F)
Dewpoint: 9.0°C (48°F) [RH = 87%]
Pressure (altimeter): 29.68 inches Hg (1005.0 mb)
Winds: from the SSW (200 degrees) at 7 MPH (6 knots; 3.1 m/s)
Visibility: 6 or more miles (10+ km)
Ceiling: ceiling and visibility are OK
Clouds: unknown
Weather: no significant weather observed at this time

METAR text: UKKK 032100Z VRB01MPS CAVOK 10/09 Q1005 R26/290156 NOSIG
Conditions at: UKKK (KIEV/ZHYLIANY , UA) observed 2100 UTC 03 June 2020
Temperature: 10.0°C (50°F)
Dewpoint: 9.0°C (48°F) [RH = 93%]
Pressure (altimeter): 29.68 inches Hg (1005.0 mb)
Winds: variable direction winds at 2 MPH (2 knots; 1.0 m/s)
Visibility: 6 or more miles (10+ km)
Ceiling: ceiling and visibility are OK
Clouds: unknown
Weather: no significant weather observed at this time

METAR text: UKKK 032030Z VRB01MPS CAVOK 08/08 Q1005 R26/290156 NOSIG
Conditions at: UKKK (KIEV/ZHYLIANY , UA) observed 2030 UTC 03 June 2020
Temperature: 8.0°C (46°F)
Dewpoint: 8.0°C (46°F) [RH = 100%]
Pressure (altimeter): 29.68 inches Hg (1005.0 mb)
Winds: variable direction winds at 2 MPH (2 knots; 1.0 m/s)
Visibility: 6 or more miles (10+ km)
Ceiling: ceiling and visibility are OK
Clouds: unknown
Weather: no significant weather observed at this time

METAR text: UKKK 032000Z 19002MPS CAVOK 09/09 Q1005 R26/290156 NOSIG
Conditions at: UKKK (KIEV/ZHYLIANY , UA) observed 2000 UTC 03 June 2020
Temperature: 9.0°C (48°F)
Dewpoint: 9.0°C (48°F) [RH = 100%]
Pressure (altimeter): 29.68 inches Hg (1005.0 mb)
Winds: from the S (190 degrees) at 5 MPH (4 knots; 2.1 m/s)
Visibility: 6 or more miles (10+ km)
Ceiling: ceiling and visibility are OK
Clouds: unknown
Weather: no significant weather observed at this time

METAR text: UKKK 031930Z 18003MPS CAVOK 09/09 Q1005 R26/290156 NOSIG
Conditions at: UKKK (KIEV/ZHYLIANY , UA) observed 1930 UTC 03 June 2020
Temperature: 9.0°C (48°F)
Dewpoint: 9.0°C (48°F) [RH = 100%]
Pressure (altimeter): 29.68 inches Hg (1005.0 mb)
Winds: from the S (180 degrees) at 7 MPH (6 knots; 3.1 m/s)
Visibility: 6 or more miles (10+ km)
Ceiling: ceiling and visibility are OK
Clouds: unknown
Weather: no significant weather observed at this time

METAR text: UKKK 031900Z 16002MPS 130V190 CAVOK 10/09 Q1005 R26/290156 NOSIG
Conditions at: UKKK (KIEV/ZHYLIANY , UA) observed 1900 UTC 03 June 2020
Temperature: 10.0°C (50°F)
Dewpoint: 9.0°C (48°F) [RH = 93%]
Pressure (altimeter): 29.68 inches Hg (1005.0 mb)
Winds: from the SSE (160 degrees) at 5 MPH (4 knots; 2.1 m/s)
Visibility: 6 or more miles (10+ km)
Ceiling: ceiling and visibility are OK
Clouds: unknown
Weather: no significant weather observed at this time

METAR text: UKKK 031830Z 00000MPS CAVOK 10/09 Q1005 R26/290156 NOSIG
Conditions at: UKKK (KIEV/ZHYLIANY , UA) observed 1830 UTC 03 June 2020
Temperature: 10.0°C (50°F)
Dewpoint: 9.0°C (48°F) [RH = 93%]
Pressure (altimeter): 29.68 inches Hg (1005.0 mb)
Winds: calm
Visibility: 6 or more miles (10+ km)
Ceiling: ceiling and visibility are OK
Clouds: unknown
Weather: no significant weather observed at this time

METAR text: UKKK 031800Z 14002MPS 100V210 CAVOK 11/11 Q1005 R26/290156 NOSIG
Conditions at: UKKK (KIEV/ZHYLIANY , UA) observed 1800 UTC 03 June 2020
Temperature: 11.0°C (52°F)
Dewpoint: 11.0°C (52°F) [RH = 100%]
Pressure (altimeter): 29.68 inches Hg (1005.0 mb)
Winds: from the SE (140 degrees) at 5 MPH (4 knots; 2.1 m/s)
Visibility: 6 or more miles (10+ km)
Ceiling: ceiling and visibility are OK
Clouds: unknown
Weather: no significant weather observed at this time

METAR text: UKKK 031730Z VRB01MPS CAVOK 11/11 Q1005 R26/290058 NOSIG
Conditions at: UKKK (KIEV/ZHYLIANY , UA) observed 1730 UTC 03 June 2020
Temperature: 11.0°C (52°F)
Dewpoint: 11.0°C (52°F) [RH = 100%]
Pressure (altimeter): 29.68 inches Hg (1005.0 mb)
Winds: variable direction winds at 2 MPH (2 knots; 1.0 m/s)
Visibility: 6 or more miles (10+ km)
Ceiling: ceiling and visibility are OK
Clouds: unknown
Weather: no significant weather observed at this time

METAR text: UKKK 031700Z VRB01MPS 9999 -SHRA SCT020CB 12/09 Q1005 R26/290058 NOSIG
Conditions at: UKKK (KIEV/ZHYLIANY , UA) observed 1700 UTC 03 June 2020
Temperature: 12.0°C (54°F)
Dewpoint: 9.0°C (48°F) [RH = 82%]
Pressure (altimeter): 29.68 inches Hg (1005.0 mb)
Winds: variable direction winds at 2 MPH (2 knots; 1.0 m/s)
Visibility: 6 or more miles (10+ km)
Ceiling: at least 12,000 feet AGL
Clouds: scattered clouds at 2000 feet AGL
Weather: -SHRA  (light rain showers)

METAR text: UKKK 031630Z 13002MPS 100V160 CAVOK 13/09 Q1005 R26/290058 NOSIG
Conditions at: UKKK (KIEV/ZHYLIANY , UA) observed 1630 UTC 03 June 2020
Temperature: 13.0°C (55°F)
Dewpoint: 9.0°C (48°F) [RH = 77%]
Pressure (altimeter): 29.68 inches Hg (1005.0 mb)
Winds: from the SE (130 degrees) at 5 MPH (4 knots; 2.1 m/s)
Visibility: 6 or more miles (10+ km)
Ceiling: ceiling and visibility are OK
Clouds: unknown
Weather: no significant weather observed at this time

METAR text: UKKK 031600Z 14003MPS CAVOK 13/09 Q1005 R26/290058 NOSIG
Conditions at: UKKK (KIEV/ZHYLIANY , UA) observed 1600 UTC 03 June 2020
Temperature: 13.0°C (55°F)
Dewpoint: 9.0°C (48°F) [RH = 77%]
Pressure (altimeter): 29.68 inches Hg (1005.0 mb)
Winds: from the SE (140 degrees) at 7 MPH (6 knots; 3.1 m/s)
Visibility: 6 or more miles (10+ km)
Ceiling: ceiling and visibility are OK
Clouds: unknown
Weather: no significant weather observed at this time

METAR text: UKKK 031530Z 19002MPS 160V240 9000 -RA BKN049 13/08 Q1005 R26/290058 NOSIG
Conditions at: UKKK (KIEV/ZHYLIANY , UA) observed 1530 UTC 03 June 2020
Temperature: 13.0°C (55°F)
Dewpoint: 8.0°C (46°F) [RH = 72%]
Pressure (altimeter): 29.68 inches Hg (1005.0 mb)
Winds: from the S (190 degrees) at 5 MPH (4 knots; 2.1 m/s)
Visibility: 6 miles ( 9 km)
Ceiling: 4900 feet AGL
Clouds: broken clouds at 4900 feet AGL
Weather: -RA  (light rain)

METAR text: UKKK 031500Z 22002MPS CAVOK 13/09 Q1005 R26/290058 NOSIG
Conditions at: UKKK (KIEV/ZHYLIANY , UA) observed 1500 UTC 03 June 2020
Temperature: 13.0°C (55°F)
Dewpoint: 9.0°C (48°F) [RH = 77%]
Pressure (altimeter): 29.68 inches Hg (1005.0 mb)
Winds: from the SW (220 degrees) at 5 MPH (4 knots; 2.1 m/s)
Visibility: 6 or more miles (10+ km)
Ceiling: ceiling and visibility are OK
Clouds: unknown
Weather: no significant weather observed at this time

Forecast for: UKKK (KIEV/ZHYLIANY , UA)
Text: TAF UKKK 042303Z 0500/0524 19005G10MPS 9999 BKN020
Forecast period: 0000 UTC 05 June 2020 to 0000 UTC 06 June 2020
Forecast type: FROM: standard forecast or significant change
Winds: from the S (190 degrees) at 12 MPH (10 knots; 5.1 m/s)
gusting to 22 MPH (19 knots; 9.8 m/s)
Visibility: 6 or more miles 10+ km)
Ceiling: 2000 feet AGL
Clouds: broken clouds at 2000 feet AGL
Weather: no significant weather forecast for this period
Text: TEMPO 0500/0509 17007G13MPS 2100 -SHRA BR BKN005 SCT015CB
Forecast period: 0000 to 0900 UTC 05 June 2020
Forecast type: TEMPORARY: The following changes expected for less than half the time period
Winds: from the S (170 degrees) at 16 MPH (14 knots; 7.2 m/s)
gusting to 29 MPH (25 knots; 12.9 m/s)
Visibility: 1.30 miles (2.09 km)
Ceiling: 500 feet AGL
Clouds: broken clouds at 500 feet AGL
scattered clouds at 1500 feet AGL
Weather: -SHRA BR  (light rain showers, mist)
Text: PROB40
Forecast period: 0000 to 0900 UTC 05 June 2020
Forecast type: TEMPORARY: The following changes expected for less than half the time period
Winds: variable direction winds at 22 MPH (19 knots; 9.8 m/s)
gusting to 38 MPH (33 knots; 17.0 m/s)
Visibility: 0.93 miles (1.50 km)
Ceiling: 400 feet AGL
Clouds: broken clouds at 400 feet AGL
broken clouds at 1500 feet AGL
Weather: TSRA TSGR SQ  (rain associated with thunderstorm(s), hail associated with thunderstorm(s), squal)
Text: TEMPO 0500/0509 VRB10G17MPS 1500 TSRAGR SQ BKN004 BKN015CB
Forecast period: 0900 to 1900 UTC 05 June 2020
Forecast type: TEMPORARY: The following changes expected for less than half the time period
Winds: variable direction winds at 22 MPH (19 knots; 9.8 m/s)
gusting to 40 MPH (35 knots; 18.0 m/s)
Visibility: 0.75 miles (1.21 km)
Ceiling: 600 feet AGL
Clouds: broken clouds at 600 feet AGL
broken clouds at 1500 feet AGL
Weather: TSRA TSGR SQ  (rain associated with thunderstorm(s), hail associated with thunderstorm(s), squal)
Text: TEMPO 0509/0519 VRB10G18MPS 1200 TSRAGR SQ BKN006 BKN015CB
Forecast period: 1900 UTC 05 June 2020 to 0000 UTC 06 June 2020
Forecast type: TEMPORARY: The following changes expected for less than half the time period
Visibility: 1.30 miles (2.09 km)
Ceiling: 600 feet AGL
Clouds: broken clouds at 600 feet AGL
scattered clouds at 1500 feet AGL
Weather: -SHRA BR  (light rain showers, mist)